Prochaines Courses

Inscriptions en ligne

Connexion

VTT

ODYSSEE VTT du 15/06/14 (Réelle 21)
Rang Dossard Nom Prénom Temps Cat Rang Cat Ecart Ecart Cat Club Vitesse Km/h Temps au Km
1 69 THESSE David CUCHEVAL Mathias 00:52:22   1 00:00:00 00:00:00 COT 24,061 02:30
2 35 DRANSART Adrien MOULLIERE Richard 00:53:36   2 00:01:14 00:01:14 BERCK TRIATHLON 23,507 02:33
3 4 HURTEL David BOUCLET Bastien 00:54:10   3 00:01:48 00:01:48 TEAM OPALE COYOTE 1 23,262 02:35
4 68 DEPANNEMAECKER Eric BRUNOT YOANN 00:56:25   4 00:04:03 00:04:03 CAPONORD DUNKERQUE RAID AVENTURE 22,334 02:41
5 64 BUSSON Elie CABOCHE Antoine 00:57:26   5 00:05:04 00:05:04 TEAM BIANCHI 21,938 02:44
6 1 LANDRECIES Loic CROGIEZ José 00:57:53   6 00:05:31 00:05:31 VELOLAND SAINT MARTIN BOULOGNE 21,768 02:45
7 61 BOUTON Rémi RIEZ Gael 00:58:27   7 00:06:05 00:06:05 TIWANAKU CREW 21,557 02:47
8 79 LE BEC Mickael PODEVIN Eric 00:58:28   8 00:06:06 00:06:06 LES ACHARNES 21,551 02:47
9 11 FRANCOIS Gilbert ANDRIEUX Dimitri 00:58:46   9 00:06:24 00:06:24 MARCK'ATHLON 21,441 02:48
10 16 CARPENTIER Thierry SUEUR Fabrice 00:58:52   10 00:06:30 00:06:30 SPORT EVASION DES 2 CAPS "LES VETERANS" 21,404 02:48
11 21 GUYOT Fabien MATRINGHEN Tony 00:59:11   11 00:06:49 00:06:49 LES PETITS BAIGNEURS 21,290 02:49
12 85 QUEVAL Jean Jacques BELVILLE   Philippe 00:59:39   12 00:07:17 00:07:17 RETOUR VERS LE FUTUR 21,123 02:50
13 9 MAZURIER Alain PIERRU Reynald 01:01:52   13 00:09:30 00:09:30 LES 2 VENTS TANGUY 20,366 02:57
14 8 VICONGNE Geoffrey FOULON Julien 01:01:53   14 00:09:31 00:09:31 LES PETITS NIN-NINS 20,361 02:57
15 89 LECOUTRE Thierry DEBETTE Florian 01:02:23   15 00:10:01 00:10:01 TEAM OTN 3 20,198 02:58
16 92 MAQUINGHEN Christophe DUCLOY Kévin 01:02:23   16 00:10:01 00:10:01 JACK ET DANIELS 20,198 02:58
17 88 LANGLET Mathieu GOSSELIN Rudy 01:02:33   17 00:10:11 00:10:11 LES COYOTTES 3 20,144 02:59
18 15 MONTIGNY Dimitri GAVOIS Cyril 01:02:46   18 00:10:24 00:10:24 LES JEUNOTS DE SPORT EVASION DES 2 CAPS 20,074 02:59
19 87 DEVOLDER Jean-Bernard COURTECUISSE   Julien 01:02:48   19 00:10:26 00:10:26 O'MAX TEAM 20,064 02:59
20 36 QUEVAL Charles Hubert CARRE   Pauline 01:03:06   20 00:10:44 00:10:44 LILLE 2 LA TENTATION 19,968 03:00
21 96 LECENDRE Olivier DUMONT Emmanuel 01:03:50   21 00:11:28 00:11:28 LA DEUXIEME CHANCE 19,739 03:02
22 66 PRIEZ Julien LEMAIRE Benjamin 01:04:11   22 00:11:49 00:11:49 LES NEOPHYTES 19,631 03:03
23 7 DUWAT Fredéric LEVEL Eddy 01:04:44   23 00:12:22 00:12:22 ULYSSE ET TELEMAQUE 19,464 03:05
24 81 LEVEL Fabien NOEL David 01:04:46   24 00:12:24 00:12:24 TEAM CAPELLOIS 19,454 03:05
25 25 PAVY Frédéric PRUVOT Romain 01:05:05   25 00:12:43 00:12:43 ROMOLO 19,360 03:06
26 5 HURTRELLE Guyslain FEVRIER Cédric 01:05:07   26 00:12:45 00:12:45 TEAM OPALE COYOTE 2 19,350 03:06
27 71 RINGUET Fred PERARD Thierry 01:05:26   27 00:13:04 00:13:04 RINGUET-PERARD 19,256 03:07
28 58 HACHE Nicolas HERENT Martin 01:05:36   28 00:13:14 00:13:14 POUTINE POWER 19,207 03:07
29 44 GRESSIER Olivier KUSCHNICK Fabrice 01:06:00   29 00:13:38 00:13:38 SPORT ANIM 19,091 03:09
30 32 PRUD HOMME Mickael MASCOT   Christophe 01:06:26   30 00:14:04 00:14:04 LES LIMACES 18,966 03:10
31 93 DIEUSET Anthony DOYER Laurent 01:06:38   31 00:14:16 00:14:16 OPALE TRAIL NATURE LES JEUNES 18,909 03:10
32 86 LESAGE Franck BOYAVAL Stéphane 01:06:56   32 00:14:34 00:14:34 DUNKERQUE RAID AVENTURE 3 18,825 03:11
33 73 BARROIS Cédric BARROIS Céline 01:07:49   33 00:15:27 00:15:27 LES CAPELLOIS 18,580 03:14
34 55 DUFRENNE Jacques DUFRENNE Elise 01:08:35   34 00:16:13 00:16:13 PÈRE ET FILLE ESCAP AVENTURE 18,372 03:16
35 75 DAVIAUD Fabrice KALOLEWSKI Pascal 01:08:40   35 00:16:18 00:16:18 LA SELEçAO DE SAINTE CECILE 18,350 03:16
36 53 GUERVILLE Maxime SUEUR Samuel 01:09:45   36 00:17:23 00:17:23 THE BEST 18,065 03:19
37 34 MACQUET Bruno GUYOT Rémi 01:09:47   37 00:17:25 00:17:25 OPALE TRAIL NATURE 18,056 03:19
38 90 LOYER Virginie POURRE Fabienne 01:09:54   38 00:17:32 00:17:32 L AGENCE TOUT RISQUE 18,026 03:20
39 51 DAGHEAUX Armel BODART   Jean-François 01:09:59   39 00:17:37 00:17:37 LES FOLIENS 18,004 03:20
40 72 CHARBONNIER Grégory CHARBONNIER   Wilfried 01:10:19   40 00:17:57 00:17:57 CHICOUMI 17,919 03:21
41 56 DRAVIGNY Thibaud CARON William 01:10:23   41 00:18:01 00:18:01 LES WELSH GROS 17,902 03:21
42 65 RAMBURE Dominique LIGNIER Rodolphe 01:10:38   42 00:18:16 00:18:16 LES BOFS 17,839 03:22
43 10 BAILLY François BUTEL David 01:10:41   43 00:18:19 00:18:19 LES BEAUFS 17,826 03:22
44 63 MACQUET Olivier THUILLIER Patrick 01:10:56   44 00:18:34 00:18:34 2DEFOL 17,763 03:23
45 50 GODART Jean Christophe DEPLECHIN   David 01:11:13   45 00:18:51 00:18:51 GO DEP TEAM 17,692 03:23
46 97 HOLUIGUE Frédéric DIERKERS Maxime 01:11:21   46 00:18:59 00:18:59 TEAM DU BAR 17,659 03:24
47 26 FILMOTTE Franck HANQUEZ Rudy 01:11:31   47 00:19:09 00:19:09 LES BRIOCHES 17,618 03:24
48 59 BELLAMBOIS Stéphane VANDERZYPPE   Ludovic 01:11:35   48 00:19:13 00:19:13 LES 69 17,602 03:25
49 28 MAYE Aubin PREVOST Maxime 01:11:47   49 00:19:25 00:19:25 MAXBIN 17,553 03:25
50 27 GHYS Gérald TISON Vincent 01:13:03   50 00:20:41 00:20:41 LES Z'ZAMIS 17,248 03:29
51 30 FRANCOIS Guillaume FIEVET Arnold 01:13:12   51 00:20:50 00:20:50 NULS ET FIERS DE L ETRE 17,213 03:29
52 84 KAMINSKI Olivia DEWISPELAERE   Frédéric 01:13:21   52 00:20:59 00:20:59 ARV'ENTURE NORTHWAVE 17,178 03:30
53 31 LAIDEZ Jonathan VIENNE Samuel 01:13:32   53 00:21:10 00:21:10 TEAM SPORTANIM 17,135 03:30
54 47 DELANNOY Bastien LACROIX Olivier 01:13:35   54 00:21:13 00:21:13 LES P'TITS SEINGES 17,123 03:30
55 46 FONTAINE Nicolas LEFEBVRE Tony 01:14:14   55 00:21:52 00:21:52 AC OUTREAU NOVICES 16,974 03:32
56 52 DAQUIN Gérard DEFOSSE Alexandra 01:14:56   56 00:22:34 00:22:34 LES EDUCS 16,815 03:34
57 18 SEILLIER Christophe RENOUX Yohan 01:15:33   57 00:23:11 00:23:11 LES GUEULARDS 16,678 03:36
58 22 GIGADEN Eddy GIGADEN Mathilde 01:15:43   58 00:23:21 00:23:21 EDDY MATH 16,641 03:36
59 80 COMPIEGNE Stéphane FEVRIER Antoine 01:15:49   59 00:23:27 00:23:27 LES GIGOLOS 16,619 03:37
60 33 RINGARD Julien LIEGEOIS Gaelle 01:16:05   60 00:23:43 00:23:43 LES TOMBES RAIDEUR 16,561 03:37
61 43 FIN Fabien FOUTREN Paul 01:16:06   61 00:23:44 00:23:44 LES HERBY OTN 16,557 03:37
62 42 LEDEZ Jean-Bernard DUFLOS Henri 01:17:11   62 00:24:49 00:24:49 POMME CANNELLE 16,325 03:41
63 76 LECERF Renaud PETA Jeanne estelle 01:17:39   63 00:25:17 00:25:17 ESCAP'AVENTURE MIXTE 16,227 03:42
64 20 DEBAS Gérard ANDRU Reynald 01:17:51   64 00:25:29 00:25:29 FOR EVER 16,185 03:42
65 40 RYCKEBUSCH Stephane RYCKEBUSCH   Marie 01:18:08   65 00:25:46 00:25:46 RYCKY'S 16,126 03:43
66 94 WAROT Antoine GLACON Guillaume 01:18:14   66 00:25:52 00:25:52 LA CUISSE RAID TEAM 16,106 03:44
67 23 RUITZ Joseph DAMETTE Odile 01:18:43   67 00:26:21 00:26:21 JULBO RUITZ 16,007 03:45
68 39 BOUVILLE Mélanie BRIDENNE Agnès 01:19:06   68 00:26:44 00:26:44 TEAM BACO FILLES 15,929 03:46
69 24 PRUDHOMME Georges DOUILLY Franck 01:20:35   69 00:28:13 00:28:13 DOUD'HOMME 15,636 03:50
70 41 NEANT Stéphanie TKACZ Olivier 01:20:49   70 00:28:27 00:28:27 LES TOUQUETTOIS 15,591 03:51
71 19 HENOT Romain HERALY Julien 01:21:10   71 00:28:48 00:28:48 THE J.R.H TEAM 15,524 03:52
72 98 TEILLIER Thomas DEBOVE Thomas 01:21:32   72 00:29:10 00:29:10 LES THOMA'S 15,454 03:53
73 45 POYER Hortense DAUDIER DE CASSINI   Amicie 01:22:05   73 00:29:43 00:29:43 LES FOYALLE 15,350 03:55
74 78 QUANDALLE Christophe DEBETTE   Clément 01:22:22   74 00:30:00 00:30:00 LES BOURNONVILLOIS 15,297 03:55
75 67 BAREGE Aurélien SENTUNE Laura 01:22:38   75 00:30:16 00:30:16 L'AURAL'SBAR 15,248 03:56
76 3 TINCHON Didier VANDENBERGUE   Aurélie 01:22:42   76 00:30:20 00:30:20 TEAM AUREDID 15,236 03:56
77 77 LECERF Robin LECERF   Bastien 01:23:31   77 00:31:09 00:31:09 LES COUZ D'ESCAP 15,087 03:59
78 62 LOBERT Vincent HANQUEZ Emmanuel 01:23:32   78 00:31:10 00:31:10 MANU TEAM 15,084 03:59
79 6 BILLIET Adrien FLAHAUT Cyril 01:24:02   79 00:31:40 00:31:40 NO STRESS 14,994 04:00
80 29 SCHEHR Quentin ROQUIGNY Chloé 01:24:08   80 00:31:46 00:31:46 LES SHETLAND VOLVO 14,976 04:00
81 82 DELATTRE David BULOT Stéphane 01:24:14   81 00:31:52 00:31:52 LES ZOULOUS 14,958 04:01
82 38 LEPRETRE Charles GENTIT Berangère 01:24:28   82 00:32:06 00:32:06 LES NOVICES 14,917 04:01
83 91 DE MONESTEL Frédérique ZYBENA Marc 01:24:32   83 00:32:10 00:32:10 BREAKRAIDERS 14,905 04:02
84 95 DELIANCOURT Laurent LECLERC   Laurent 01:28:46   84 00:36:24 00:36:24 LES CHTIOS 14,195 04:14
85 60 VANDERZYPPE Catherine LESAGE   Magali 01:29:39   85 00:37:17 00:37:17 BANANAS 14,055 04:16
86 54 BUCKMAN Laetitia BOYAVAL Charlotte 01:30:35   86 00:38:13 00:38:13 DUNKERQUE RAID AVENTURE 13,910 04:19
87 2 BLOUIN Samuel BLOUIN Delphine 01:37:39   87 00:45:17 00:45:17 LES SAMOUREUX 12,903 04:39
88 48 SEIGNEUR Carole GENNEBAUD Olivier 01:37:47   88 00:45:25 00:45:25 LES GROS SEINGES 12,886 04:39
89 57 GUERVILLE Noémie BEZEAU Thibault 01:39:59   89 00:47:37 00:47:37 COUSIN & COUSINE 12,602 04:46
90 14 DUCLOY Alexandra SUEUR Mélanie 01:44:18   90 00:51:56 00:51:56 LES SENEGAZELLES DE SPORT EVASION DES 2 CAPS 12,081 04:58
91 83 CAMPAGNE Sandra CUENOT Alban 01:47:39   91 00:55:17 00:55:17 LES ZINZINS 11,705 05:08